sensor_id;sensor_type;location;lat;lon;timestamp;P1;durP1;ratioP1;P2;durP2;ratioP2
12059;SDS011;6091;51.432;6.880;2023-03-14T00:01:14;0.22;;;0.22;;
12059;SDS011;6091;51.432;6.880;2023-03-14T00:03:44;0.30;;;0.30;;
12059;SDS011;6091;51.432;6.880;2023-03-14T00:06:11;0.20;;;0.20;;
12059;SDS011;6091;51.432;6.880;2023-03-14T00:08:40;0.30;;;0.30;;
12059;SDS011;6091;51.432;6.880;2023-03-14T00:11:14;0.40;;;0.40;;
12059;SDS011;6091;51.432;6.880;2023-03-14T00:13:47;0.40;;;0.40;;
12059;SDS011;6091;51.432;6.880;2023-03-14T00:16:16;0.30;;;0.30;;
12059;SDS011;6091;51.432;6.880;2023-03-14T00:18:43;0.30;;;0.30;;
12059;SDS011;6091;51.432;6.880;2023-03-14T00:21:10;0.30;;;0.30;;
12059;SDS011;6091;51.432;6.880;2023-03-14T00:23:39;0.40;;;0.40;;
12059;SDS011;6091;51.432;6.880;2023-03-14T00:26:08;0.30;;;0.30;;
12059;SDS011;6091;51.432;6.880;2023-03-14T00:28:40;0.30;;;0.30;;
12059;SDS011;6091;51.432;6.880;2023-03-14T00:31:08;0.40;;;0.40;;
12059;SDS011;6091;51.432;6.880;2023-03-14T00:33:38;0.30;;;0.30;;
12059;SDS011;6091;51.432;6.880;2023-03-14T00:36:06;0.50;;;0.50;;
12059;SDS011;6091;51.432;6.880;2023-03-14T00:38:37;0.40;;;0.38;;
12059;SDS011;6091;51.432;6.880;2023-03-14T00:41:07;0.32;;;0.30;;
12059;SDS011;6091;51.432;6.880;2023-03-14T00:43:37;0.38;;;0.38;;
12059;SDS011;6091;51.432;6.880;2023-03-14T00:46:04;0.30;;;0.30;;
12059;SDS011;6091;51.432;6.880;2023-03-14T00:48:32;0.50;;;0.40;;
12059;SDS011;6091;51.432;6.880;2023-03-14T00:51:01;0.22;;;0.22;;
12059;SDS011;6091;51.432;6.880;2023-03-14T00:53:36;0.40;;;0.40;;
12059;SDS011;6091;51.432;6.880;2023-03-14T00:56:06;0.63;;;0.40;;
12059;SDS011;6091;51.432;6.880;2023-03-14T00:58:36;0.30;;;0.30;;
12059;SDS011;6091;51.432;6.880;2023-03-14T01:01:07;0.30;;;0.30;;
12059;SDS011;6091;51.432;6.880;2023-03-14T01:03:38;0.75;;;0.30;;
12059;SDS011;6091;51.432;6.880;2023-03-14T01:06:06;0.30;;;0.30;;
12059;SDS011;6091;51.432;6.880;2023-03-14T01:08:36;0.30;;;0.30;;
12059;SDS011;6091;51.432;6.880;2023-03-14T01:11:07;0.30;;;0.30;;
12059;SDS011;6091;51.432;6.880;2023-03-14T01:13:38;0.40;;;0.40;;
12059;SDS011;6091;51.432;6.880;2023-03-14T01:16:06;0.30;;;0.30;;
12059;SDS011;6091;51.432;6.880;2023-03-14T01:18:36;0.30;;;0.30;;
12059;SDS011;6091;51.432;6.880;2023-03-14T01:21:22;0.40;;;0.40;;
12059;SDS011;6091;51.432;6.880;2023-03-14T01:23:55;0.30;;;0.30;;
12059;SDS011;6091;51.432;6.880;2023-03-14T01:26:25;0.30;;;0.30;;
12059;SDS011;6091;51.432;6.880;2023-03-14T01:28:55;0.20;;;0.20;;
12059;SDS011;6091;51.432;6.880;2023-03-14T01:31:23;0.38;;;0.38;;
12059;SDS011;6091;51.432;6.880;2023-03-14T01:33:51;0.43;;;0.40;;
12059;SDS011;6091;51.432;6.880;2023-03-14T01:36:18;0.32;;;0.30;;
12059;SDS011;6091;51.432;6.880;2023-03-14T01:38:45;0.38;;;0.30;;
12059;SDS011;6091;51.432;6.880;2023-03-14T01:41:18;0.30;;;0.30;;
12059;SDS011;6091;51.432;6.880;2023-03-14T01:43:49;0.30;;;0.30;;
12059;SDS011;6091;51.432;6.880;2023-03-14T01:46:22;0.30;;;0.30;;
12059;SDS011;6091;51.432;6.880;2023-03-14T01:48:57;0.32;;;0.32;;
12059;SDS011;6091;51.432;6.880;2023-03-14T01:54:35;0.40;;;0.40;;
12059;SDS011;6091;51.432;6.880;2023-03-14T01:57:16;0.30;;;0.30;;
12059;SDS011;6091;51.432;6.880;2023-03-14T02:00:11;0.30;;;0.30;;
12059;SDS011;6091;51.432;6.880;2023-03-14T02:02:41;0.30;;;0.30;;
12059;SDS011;6091;51.432;6.880;2023-03-14T02:05:20;0.63;;;0.30;;
12059;SDS011;6091;51.432;6.880;2023-03-14T02:07:53;0.40;;;0.40;;
12059;SDS011;6091;51.432;6.880;2023-03-14T02:10:24;0.20;;;0.20;;
12059;SDS011;6091;51.432;6.880;2023-03-14T02:12:56;0.32;;;0.32;;
12059;SDS011;6091;51.432;6.880;2023-03-14T02:15:28;0.40;;;0.40;;
12059;SDS011;6091;51.432;6.880;2023-03-14T02:17:57;0.30;;;0.30;;
12059;SDS011;6091;51.432;6.880;2023-03-14T02:20:41;0.40;;;0.40;;
12059;SDS011;6091;51.432;6.880;2023-03-14T02:23:31;0.30;;;0.30;;
12059;SDS011;6091;51.432;6.880;2023-03-14T02:26:41;0.32;;;0.30;;
12059;SDS011;6091;51.432;6.880;2023-03-14T02:29:30;0.40;;;0.40;;
12059;SDS011;6091;51.432;6.880;2023-03-14T02:32:01;0.20;;;0.20;;
12059;SDS011;6091;51.432;6.880;2023-03-14T02:34:29;0.40;;;0.40;;
12059;SDS011;6091;51.432;6.880;2023-03-14T02:36:57;0.55;;;0.40;;
12059;SDS011;6091;51.432;6.880;2023-03-14T02:39:33;0.20;;;0.20;;
12059;SDS011;6091;51.432;6.880;2023-03-14T02:42:05;0.30;;;0.30;;
12059;SDS011;6091;51.432;6.880;2023-03-14T02:44:32;0.40;;;0.40;;
12059;SDS011;6091;51.432;6.880;2023-03-14T02:47:02;0.50;;;0.40;;
12059;SDS011;6091;51.432;6.880;2023-03-14T02:49:30;0.38;;;0.38;;
12059;SDS011;6091;51.432;6.880;2023-03-14T02:51:59;0.40;;;0.38;;
12059;SDS011;6091;51.432;6.880;2023-03-14T02:54:26;0.20;;;0.20;;
12059;SDS011;6091;51.432;6.880;2023-03-14T02:56:53;0.30;;;0.30;;
12059;SDS011;6091;51.432;6.880;2023-03-14T02:59:20;0.50;;;0.40;;
12059;SDS011;6091;51.432;6.880;2023-03-14T03:01:47;0.55;;;0.30;;
12059;SDS011;6091;51.432;6.880;2023-03-14T03:04:14;0.20;;;0.20;;
12059;SDS011;6091;51.432;6.880;2023-03-14T03:06:41;0.40;;;0.35;;
12059;SDS011;6091;51.432;6.880;2023-03-14T03:09:08;0.38;;;0.38;;
12059;SDS011;6091;51.432;6.880;2023-03-14T03:11:35;0.35;;;0.32;;
12059;SDS011;6091;51.432;6.880;2023-03-14T03:14:02;0.32;;;0.32;;
12059;SDS011;6091;51.432;6.880;2023-03-14T03:16:29;0.30;;;0.30;;
12059;SDS011;6091;51.432;6.880;2023-03-14T03:18:56;0.22;;;0.22;;
12059;SDS011;6091;51.432;6.880;2023-03-14T03:21:23;0.25;;;0.25;;
12059;SDS011;6091;51.432;6.880;2023-03-14T03:23:50;0.40;;;0.40;;
12059;SDS011;6091;51.432;6.880;2023-03-14T03:26:17;0.20;;;0.20;;
12059;SDS011;6091;51.432;6.880;2023-03-14T03:28:44;0.20;;;0.20;;
12059;SDS011;6091;51.432;6.880;2023-03-14T03:31:11;0.22;;;0.22;;
12059;SDS011;6091;51.432;6.880;2023-03-14T03:33:38;0.30;;;0.20;;
12059;SDS011;6091;51.432;6.880;2023-03-14T03:36:05;0.40;;;0.40;;
12059;SDS011;6091;51.432;6.880;2023-03-14T03:38:34;0.35;;;0.30;;
12059;SDS011;6091;51.432;6.880;2023-03-14T03:41:05;0.30;;;0.30;;
12059;SDS011;6091;51.432;6.880;2023-03-14T03:43:34;0.38;;;0.30;;
12059;SDS011;6091;51.432;6.880;2023-03-14T03:46:04;0.30;;;0.30;;
12059;SDS011;6091;51.432;6.880;2023-03-14T03:48:32;0.50;;;0.40;;
12059;SDS011;6091;51.432;6.880;2023-03-14T03:50:59;0.30;;;0.30;;
12059;SDS011;6091;51.432;6.880;2023-03-14T03:53:26;0.30;;;0.30;;
12059;SDS011;6091;51.432;6.880;2023-03-14T03:55:59;0.20;;;0.20;;
12059;SDS011;6091;51.432;6.880;2023-03-14T03:58:27;0.25;;;0.25;;
12059;SDS011;6091;51.432;6.880;2023-03-14T04:00:54;0.30;;;0.30;;
12059;SDS011;6091;51.432;6.880;2023-03-14T04:03:21;0.22;;;0.22;;
12059;SDS011;6091;51.432;6.880;2023-03-14T04:05:59;0.30;;;0.30;;
12059;SDS011;6091;51.432;6.880;2023-03-14T04:08:29;0.20;;;0.20;;
12059;SDS011;6091;51.432;6.880;2023-03-14T04:10:57;0.30;;;0.30;;
12059;SDS011;6091;51.432;6.880;2023-03-14T04:13:26;0.30;;;0.30;;
12059;SDS011;6091;51.432;6.880;2023-03-14T04:15:57;0.30;;;0.30;;
12059;SDS011;6091;51.432;6.880;2023-03-14T04:18:25;0.30;;;0.30;;
12059;SDS011;6091;51.432;6.880;2023-03-14T04:20:54;0.38;;;0.38;;
12059;SDS011;6091;51.432;6.880;2023-03-14T04:23:23;0.50;;;0.40;;
12059;SDS011;6091;51.432;6.880;2023-03-14T04:25:51;0.30;;;0.30;;
12059;SDS011;6091;51.432;6.880;2023-03-14T04:28:19;0.20;;;0.20;;
12059;SDS011;6091;51.432;6.880;2023-03-14T04:30:47;0.30;;;0.30;;
12059;SDS011;6091;51.432;6.880;2023-03-14T04:33:14;0.20;;;0.20;;
12059;SDS011;6091;51.432;6.880;2023-03-14T04:35:44;0.20;;;0.20;;
12059;SDS011;6091;51.432;6.880;2023-03-14T04:38:12;0.30;;;0.30;;
12059;SDS011;6091;51.432;6.880;2023-03-14T04:40:40;0.55;;;0.30;;
12059;SDS011;6091;51.432;6.880;2023-03-14T04:43:08;0.25;;;0.25;;
12059;SDS011;6091;51.432;6.880;2023-03-14T04:45:37;0.30;;;0.30;;
12059;SDS011;6091;51.432;6.880;2023-03-14T04:48:08;0.45;;;0.30;;
12059;SDS011;6091;51.432;6.880;2023-03-14T04:50:35;0.55;;;0.32;;
12059;SDS011;6091;51.432;6.880;2023-03-14T04:53:02;0.22;;;0.22;;
12059;SDS011;6091;51.432;6.880;2023-03-14T04:55:29;0.20;;;0.20;;
12059;SDS011;6091;51.432;6.880;2023-03-14T04:57:58;0.30;;;0.30;;
12059;SDS011;6091;51.432;6.880;2023-03-14T05:00:25;0.20;;;0.20;;
12059;SDS011;6091;51.432;6.880;2023-03-14T05:02:52;0.32;;;0.32;;
12059;SDS011;6091;51.432;6.880;2023-03-14T05:05:20;0.40;;;0.40;;
12059;SDS011;6091;51.432;6.880;2023-03-14T05:07:47;0.38;;;0.30;;
12059;SDS011;6091;51.432;6.880;2023-03-14T05:10:15;0.30;;;0.30;;
12059;SDS011;6091;51.432;6.880;2023-03-14T05:12:42;0.30;;;0.30;;
12059;SDS011;6091;51.432;6.880;2023-03-14T05:15:10;0.20;;;0.20;;
12059;SDS011;6091;51.432;6.880;2023-03-14T05:17:37;0.30;;;0.30;;
12059;SDS011;6091;51.432;6.880;2023-03-14T05:20:07;0.22;;;0.22;;
12059;SDS011;6091;51.432;6.880;2023-03-14T05:22:35;0.30;;;0.30;;
12059;SDS011;6091;51.432;6.880;2023-03-14T05:25:02;0.28;;;0.28;;
12059;SDS011;6091;51.432;6.880;2023-03-14T05:27:30;0.40;;;0.40;;
12059;SDS011;6091;51.432;6.880;2023-03-14T05:29:57;0.30;;;0.30;;
12059;SDS011;6091;51.432;6.880;2023-03-14T05:32:25;0.30;;;0.30;;
12059;SDS011;6091;51.432;6.880;2023-03-14T05:34:52;0.35;;;0.32;;
12059;SDS011;6091;51.432;6.880;2023-03-14T05:37:19;0.60;;;0.38;;
12059;SDS011;6091;51.432;6.880;2023-03-14T05:39:47;0.25;;;0.25;;
12059;SDS011;6091;51.432;6.880;2023-03-14T05:42:14;0.30;;;0.30;;
12059;SDS011;6091;51.432;6.880;2023-03-14T05:44:41;0.10;;;0.10;;
12059;SDS011;6091;51.432;6.880;2023-03-14T05:47:08;0.15;;;0.15;;
12059;SDS011;6091;51.432;6.880;2023-03-14T05:49:38;0.38;;;0.38;;
12059;SDS011;6091;51.432;6.880;2023-03-14T05:52:07;0.30;;;0.30;;
12059;SDS011;6091;51.432;6.880;2023-03-14T05:54:34;0.20;;;0.20;;
12059;SDS011;6091;51.432;6.880;2023-03-14T05:57:04;0.20;;;0.20;;
12059;SDS011;6091;51.432;6.880;2023-03-14T05:59:31;0.35;;;0.30;;
12059;SDS011;6091;51.432;6.880;2023-03-14T06:01:58;0.17;;;0.17;;
12059;SDS011;6091;51.432;6.880;2023-03-14T06:04:26;0.20;;;0.20;;
12059;SDS011;6091;51.432;6.880;2023-03-14T06:06:53;0.20;;;0.20;;
12059;SDS011;6091;51.432;6.880;2023-03-14T06:09:20;0.20;;;0.20;;
12059;SDS011;6091;51.432;6.880;2023-03-14T06:11:51;0.22;;;0.20;;
12059;SDS011;6091;51.432;6.880;2023-03-14T06:14:18;0.20;;;0.20;;
12059;SDS011;6091;51.432;6.880;2023-03-14T06:16:46;0.20;;;0.20;;
12059;SDS011;6091;51.432;6.880;2023-03-14T06:19:15;0.30;;;0.30;;
12059;SDS011;6091;51.432;6.880;2023-03-14T06:21:46;0.20;;;0.20;;
12059;SDS011;6091;51.432;6.880;2023-03-14T06:24:13;0.20;;;0.20;;
12059;SDS011;6091;51.432;6.880;2023-03-14T06:26:40;0.20;;;0.20;;
12059;SDS011;6091;51.432;6.880;2023-03-14T06:29:10;0.20;;;0.20;;
12059;SDS011;6091;51.432;6.880;2023-03-14T06:31:37;0.20;;;0.20;;
12059;SDS011;6091;51.432;6.880;2023-03-14T06:34:04;0.28;;;0.28;;
12059;SDS011;6091;51.432;6.880;2023-03-14T06:36:32;0.30;;;0.30;;
12059;SDS011;6091;51.432;6.880;2023-03-14T06:38:59;0.30;;;0.30;;
12059;SDS011;6091;51.432;6.880;2023-03-14T06:41:29;0.22;;;0.22;;
12059;SDS011;6091;51.432;6.880;2023-03-14T06:43:56;0.28;;;0.28;;
12059;SDS011;6091;51.432;6.880;2023-03-14T06:46:24;2.20;;;0.30;;
12059;SDS011;6091;51.432;6.880;2023-03-14T06:48:51;1.42;;;0.55;;
12059;SDS011;6091;51.432;6.880;2023-03-14T06:51:19;0.30;;;0.30;;
12059;SDS011;6091;51.432;6.880;2023-03-14T06:53:46;0.20;;;0.20;;
12059;SDS011;6091;51.432;6.880;2023-03-14T06:56:13;0.25;;;0.25;;
12059;SDS011;6091;51.432;6.880;2023-03-14T06:58:41;0.20;;;0.20;;
12059;SDS011;6091;51.432;6.880;2023-03-14T07:01:22;0.20;;;0.20;;
12059;SDS011;6091;51.432;6.880;2023-03-14T07:03:53;0.20;;;0.20;;
12059;SDS011;6091;51.432;6.880;2023-03-14T07:06:24;0.35;;;0.30;;
12059;SDS011;6091;51.432;6.880;2023-03-14T07:08:51;0.20;;;0.20;;
12059;SDS011;6091;51.432;6.880;2023-03-14T07:11:18;1.02;;;0.30;;
12059;SDS011;6091;51.432;6.880;2023-03-14T07:13:45;0.32;;;0.22;;
12059;SDS011;6091;51.432;6.880;2023-03-14T07:16:13;1.17;;;0.40;;
12059;SDS011;6091;51.432;6.880;2023-03-14T07:18:40;0.28;;;0.28;;
12059;SDS011;6091;51.432;6.880;2023-03-14T07:21:07;0.20;;;0.20;;
12059;SDS011;6091;51.432;6.880;2023-03-14T07:23:35;1.17;;;0.40;;
12059;SDS011;6091;51.432;6.880;2023-03-14T07:26:03;0.38;;;0.30;;
12059;SDS011;6091;51.432;6.880;2023-03-14T07:28:31;0.35;;;0.30;;
12059;SDS011;6091;51.432;6.880;2023-03-14T07:30:58;0.30;;;0.30;;
12059;SDS011;6091;51.432;6.880;2023-03-14T07:33:26;3.38;;;0.50;;
12059;SDS011;6091;51.432;6.880;2023-03-14T07:35:53;0.40;;;0.40;;
12059;SDS011;6091;51.432;6.880;2023-03-14T07:38:21;0.50;;;0.30;;
12059;SDS011;6091;51.432;6.880;2023-03-14T07:40:49;0.35;;;0.30;;
12059;SDS011;6091;51.432;6.880;2023-03-14T07:43:16;0.75;;;0.40;;
12059;SDS011;6091;51.432;6.880;2023-03-14T07:45:46;0.30;;;0.30;;
12059;SDS011;6091;51.432;6.880;2023-03-14T07:48:24;1.20;;;0.40;;
12059;SDS011;6091;51.432;6.880;2023-03-14T07:50:53;0.30;;;0.30;;
12059;SDS011;6091;51.432;6.880;2023-03-14T07:53:23;0.30;;;0.30;;
12059;SDS011;6091;51.432;6.880;2023-03-14T07:55:51;0.52;;;0.30;;
12059;SDS011;6091;51.432;6.880;2023-03-14T07:58:20;5.20;;;0.73;;
12059;SDS011;6091;51.432;6.880;2023-03-14T08:00:48;0.70;;;0.32;;
12059;SDS011;6091;51.432;6.880;2023-03-14T08:03:16;9.48;;;0.63;;
12059;SDS011;6091;51.432;6.880;2023-03-14T08:05:48;0.30;;;0.30;;
12059;SDS011;6091;51.432;6.880;2023-03-14T08:08:17;0.93;;;0.40;;
12059;SDS011;6091;51.432;6.880;2023-03-14T08:10:45;1.30;;;0.40;;
12059;SDS011;6091;51.432;6.880;2023-03-14T08:13:13;0.40;;;0.40;;
12059;SDS011;6091;51.432;6.880;2023-03-14T08:15:40;2.40;;;0.40;;
12059;SDS011;6091;51.432;6.880;2023-03-14T08:18:14;0.32;;;0.32;;
12059;SDS011;6091;51.432;6.880;2023-03-14T08:20:41;2.03;;;0.40;;
12059;SDS011;6091;51.432;6.880;2023-03-14T08:23:09;3.97;;;0.95;;
12059;SDS011;6091;51.432;6.880;2023-03-14T08:25:37;1.33;;;0.60;;
12059;SDS011;6091;51.432;6.880;2023-03-14T08:28:07;2.30;;;0.50;;
12059;SDS011;6091;51.432;6.880;2023-03-14T08:30:34;0.73;;;0.52;;
12059;SDS011;6091;51.432;6.880;2023-03-14T08:33:01;1.80;;;0.43;;
12059;SDS011;6091;51.432;6.880;2023-03-14T08:35:29;0.88;;;0.50;;
12059;SDS011;6091;51.432;6.880;2023-03-14T08:37:56;2.60;;;0.50;;
12059;SDS011;6091;51.432;6.880;2023-03-14T08:40:24;0.88;;;0.50;;
12059;SDS011;6091;51.432;6.880;2023-03-14T08:42:51;3.22;;;0.60;;
12059;SDS011;6091;51.432;6.880;2023-03-14T08:45:18;3.75;;;0.77;;
12059;SDS011;6091;51.432;6.880;2023-03-14T08:47:46;2.03;;;0.80;;
12059;SDS011;6091;51.432;6.880;2023-03-14T08:50:13;2.88;;;0.70;;
12059;SDS011;6091;51.432;6.880;2023-03-14T08:52:42;4.68;;;1.00;;
12059;SDS011;6091;51.432;6.880;2023-03-14T08:55:12;1.77;;;0.80;;
12059;SDS011;6091;51.432;6.880;2023-03-14T08:57:39;3.35;;;0.65;;
12059;SDS011;6091;51.432;6.880;2023-03-14T09:00:06;1.55;;;0.50;;
12059;SDS011;6091;51.432;6.880;2023-03-14T09:02:37;1.25;;;0.50;;
12059;SDS011;6091;51.432;6.880;2023-03-14T09:05:04;1.48;;;0.57;;
12059;SDS011;6091;51.432;6.880;2023-03-14T09:07:32;1.30;;;0.43;;
12059;SDS011;6091;51.432;6.880;2023-03-14T09:09:59;3.13;;;0.70;;
12059;SDS011;6091;51.432;6.880;2023-03-14T09:12:27;0.40;;;0.40;;
12059;SDS011;6091;51.432;6.880;2023-03-14T09:14:54;1.77;;;0.40;;
12059;SDS011;6091;51.432;6.880;2023-03-14T09:17:21;1.95;;;0.70;;
12059;SDS011;6091;51.432;6.880;2023-03-14T09:19:48;2.67;;;0.68;;
12059;SDS011;6091;51.432;6.880;2023-03-14T09:22:15;3.13;;;0.50;;
12059;SDS011;6091;51.432;6.880;2023-03-14T09:24:43;2.35;;;0.60;;
12059;SDS011;6091;51.432;6.880;2023-03-14T09:27:10;1.10;;;0.60;;
12059;SDS011;6091;51.432;6.880;2023-03-14T09:29:40;1.33;;;0.40;;
12059;SDS011;6091;51.432;6.880;2023-03-14T09:32:07;1.90;;;0.40;;
12059;SDS011;6091;51.432;6.880;2023-03-14T09:34:35;1.05;;;0.40;;
12059;SDS011;6091;51.432;6.880;2023-03-14T09:37:02;1.33;;;0.68;;
12059;SDS011;6091;51.432;6.880;2023-03-14T09:39:29;1.23;;;0.40;;
12059;SDS011;6091;51.432;6.880;2023-03-14T09:41:56;1.60;;;0.45;;
12059;SDS011;6091;51.432;6.880;2023-03-14T09:44:35;0.65;;;0.30;;
12059;SDS011;6091;51.432;6.880;2023-03-14T09:47:12;0.55;;;0.40;;
12059;SDS011;6091;51.432;6.880;2023-03-14T09:49:42;0.40;;;0.40;;
12059;SDS011;6091;51.432;6.880;2023-03-14T09:52:15;0.95;;;0.50;;
12059;SDS011;6091;51.432;6.880;2023-03-14T09:55:02;0.80;;;0.40;;
12059;SDS011;6091;51.432;6.880;2023-03-14T09:57:41;0.50;;;0.30;;
12059;SDS011;6091;51.432;6.880;2023-03-14T10:00:18;0.50;;;0.40;;
12059;SDS011;6091;51.432;6.880;2023-03-14T10:03:34;1.05;;;0.45;;
12059;SDS011;6091;51.432;6.880;2023-03-14T10:05:39;0.95;;;0.50;;
12059;SDS011;6091;51.432;6.880;2023-03-14T10:08:13;0.88;;;0.45;;
12059;SDS011;6091;51.432;6.880;2023-03-14T10:10:40;0.40;;;0.40;;
12059;SDS011;6091;51.432;6.880;2023-03-14T10:13:18;1.48;;;0.30;;
12059;SDS011;6091;51.432;6.880;2023-03-14T10:15:58;1.45;;;0.65;;
12059;SDS011;6091;51.432;6.880;2023-03-14T10:18:34;2.45;;;0.80;;
12059;SDS011;6091;51.432;6.880;2023-03-14T10:21:03;2.45;;;0.90;;
12059;SDS011;6091;51.432;6.880;2023-03-14T10:23:33;0.95;;;0.70;;
12059;SDS011;6091;51.432;6.880;2023-03-14T10:28:34;2.67;;;0.93;;
12059;SDS011;6091;51.432;6.880;2023-03-14T10:31:18;2.95;;;0.98;;
12059;SDS011;6091;51.432;6.880;2023-03-14T10:33:58;4.07;;;1.00;;
12059;SDS011;6091;51.432;6.880;2023-03-14T10:36:29;1.40;;;0.60;;
12059;SDS011;6091;51.432;6.880;2023-03-14T10:40:01;3.38;;;0.70;;
12059;SDS011;6091;51.432;6.880;2023-03-14T10:44:53;0.95;;;0.65;;
12059;SDS011;6091;51.432;6.880;2023-03-14T10:47:31;1.95;;;0.93;;
12059;SDS011;6091;51.432;6.880;2023-03-14T10:52:54;0.75;;;0.75;;
12059;SDS011;6091;51.432;6.880;2023-03-14T10:55:28;0.95;;;0.85;;
12059;SDS011;6091;51.432;6.880;2023-03-14T10:58:19;1.00;;;0.82;;
12059;SDS011;6091;51.432;6.880;2023-03-14T11:03:47;1.70;;;0.80;;
12059;SDS011;6091;51.432;6.880;2023-03-14T11:10:40;1.08;;;0.73;;
12059;SDS011;6091;51.432;6.880;2023-03-14T11:17:21;2.03;;;1.48;;
12059;SDS011;6091;51.432;6.880;2023-03-14T11:23:22;2.97;;;1.55;;
12059;SDS011;6091;51.432;6.880;2023-03-14T11:26:19;3.15;;;1.40;;
12059;SDS011;6091;51.432;6.880;2023-03-14T11:29:02;3.58;;;1.73;;
12059;SDS011;6091;51.432;6.880;2023-03-14T11:32:20;1.80;;;1.13;;
12059;SDS011;6091;51.432;6.880;2023-03-14T11:34:54;2.03;;;1.00;;
12059;SDS011;6091;51.432;6.880;2023-03-14T11:37:26;2.05;;;1.40;;
12059;SDS011;6091;51.432;6.880;2023-03-14T11:42:47;3.20;;;1.20;;
12059;SDS011;6091;51.432;6.880;2023-03-14T11:45:34;8.50;;;1.58;;
12059;SDS011;6091;51.432;6.880;2023-03-14T11:48:11;3.78;;;1.15;;
12059;SDS011;6091;51.432;6.880;2023-03-14T11:51:04;1.98;;;1.17;;
12059;SDS011;6091;51.432;6.880;2023-03-14T11:54:11;4.07;;;1.55;;
12059;SDS011;6091;51.432;6.880;2023-03-14T11:56:59;8.85;;;1.40;;
12059;SDS011;6091;51.432;6.880;2023-03-14T12:02:40;3.53;;;1.20;;
12059;SDS011;6091;51.432;6.880;2023-03-14T12:08:39;3.33;;;1.48;;
12059;SDS011;6091;51.432;6.880;2023-03-14T12:14:29;3.08;;;1.20;;
12059;SDS011;6091;51.432;6.880;2023-03-14T12:17:22;9.00;;;2.07;;
12059;SDS011;6091;51.432;6.880;2023-03-14T12:22:42;10.45;;;2.60;;
12059;SDS011;6091;51.432;6.880;2023-03-14T12:25:16;8.88;;;3.90;;
12059;SDS011;6091;51.432;6.880;2023-03-14T12:28:04;8.45;;;3.83;;
12059;SDS011;6091;51.432;6.880;2023-03-14T12:30:56;9.52;;;4.20;;
12059;SDS011;6091;51.432;6.880;2023-03-14T12:34:02;13.10;;;4.57;;
12059;SDS011;6091;51.432;6.880;2023-03-14T12:56:19;6.43;;;3.95;;
12059;SDS011;6091;51.432;6.880;2023-03-14T12:59:11;9.25;;;3.95;;
12059;SDS011;6091;51.432;6.880;2023-03-14T13:02:27;8.32;;;3.75;;
12059;SDS011;6091;51.432;6.880;2023-03-14T13:05:04;9.77;;;3.60;;
12059;SDS011;6091;51.432;6.880;2023-03-14T13:13:01;7.82;;;3.00;;
12059;SDS011;6091;51.432;6.880;2023-03-14T13:15:41;9.97;;;4.20;;
12059;SDS011;6091;51.432;6.880;2023-03-14T13:18:17;6.00;;;3.38;;
12059;SDS011;6091;51.432;6.880;2023-03-14T13:21:09;8.57;;;3.13;;
12059;SDS011;6091;51.432;6.880;2023-03-14T13:26:24;9.95;;;2.85;;
12059;SDS011;6091;51.432;6.880;2023-03-14T13:31:47;6.57;;;2.78;;
12059;SDS011;6091;51.432;6.880;2023-03-14T13:34:18;5.20;;;2.75;;
12059;SDS011;6091;51.432;6.880;2023-03-14T13:36:51;9.75;;;2.55;;
12059;SDS011;6091;51.432;6.880;2023-03-14T13:39:20;5.78;;;2.50;;
12059;SDS011;6091;51.432;6.880;2023-03-14T13:41:57;5.10;;;2.40;;
12059;SDS011;6091;51.432;6.880;2023-03-14T13:44:27;5.72;;;2.28;;
12059;SDS011;6091;51.432;6.880;2023-03-14T13:47:03;4.53;;;2.10;;
12059;SDS011;6091;51.432;6.880;2023-03-14T13:49:37;6.28;;;2.58;;
12059;SDS011;6091;51.432;6.880;2023-03-14T13:52:28;6.25;;;2.47;;
12059;SDS011;6091;51.432;6.880;2023-03-14T13:55:02;8.48;;;2.35;;
12059;SDS011;6091;51.432;6.880;2023-03-14T14:00:20;5.65;;;1.88;;
12059;SDS011;6091;51.432;6.880;2023-03-14T14:02:58;4.35;;;1.77;;
12059;SDS011;6091;51.432;6.880;2023-03-14T14:05:27;4.88;;;2.65;;
12059;SDS011;6091;51.432;6.880;2023-03-14T14:07:57;6.70;;;2.38;;
12059;SDS011;6091;51.432;6.880;2023-03-14T14:10:25;5.40;;;2.03;;
12059;SDS011;6091;51.432;6.880;2023-03-14T14:13:05;7.43;;;2.50;;
12059;SDS011;6091;51.432;6.880;2023-03-14T14:15:46;8.00;;;2.33;;
12059;SDS011;6091;51.432;6.880;2023-03-14T14:18:20;5.45;;;2.13;;
12059;SDS011;6091;51.432;6.880;2023-03-14T14:20:53;5.88;;;1.75;;
12059;SDS011;6091;51.432;6.880;2023-03-14T14:23:24;5.60;;;1.85;;
12059;SDS011;6091;51.432;6.880;2023-03-14T14:26:00;4.35;;;2.05;;
12059;SDS011;6091;51.432;6.880;2023-03-14T14:28:35;4.25;;;1.70;;
12059;SDS011;6091;51.432;6.880;2023-03-14T14:33:42;3.63;;;1.77;;
12059;SDS011;6091;51.432;6.880;2023-03-14T14:36:26;4.10;;;1.77;;
12059;SDS011;6091;51.432;6.880;2023-03-14T14:39:06;4.68;;;1.50;;
12059;SDS011;6091;51.432;6.880;2023-03-14T14:41:40;2.88;;;1.73;;
12059;SDS011;6091;51.432;6.880;2023-03-14T14:44:10;3.03;;;1.45;;
12059;SDS011;6091;51.432;6.880;2023-03-14T14:46:40;3.15;;;1.48;;
12059;SDS011;6091;51.432;6.880;2023-03-14T14:49:10;2.25;;;1.33;;
12059;SDS011;6091;51.432;6.880;2023-03-14T14:51:42;3.83;;;1.38;;
12059;SDS011;6091;51.432;6.880;2023-03-14T14:54:21;3.95;;;1.52;;
12059;SDS011;6091;51.432;6.880;2023-03-14T14:57:15;2.88;;;1.33;;
12059;SDS011;6091;51.432;6.880;2023-03-14T14:59:51;3.22;;;1.40;;
12059;SDS011;6091;51.432;6.880;2023-03-14T15:02:40;2.72;;;1.25;;
12059;SDS011;6091;51.432;6.880;2023-03-14T15:05:22;2.50;;;1.20;;
12059;SDS011;6091;51.432;6.880;2023-03-14T15:07:53;2.50;;;1.17;;
12059;SDS011;6091;51.432;6.880;2023-03-14T15:10:22;2.75;;;1.20;;
12059;SDS011;6091;51.432;6.880;2023-03-14T15:12:52;2.45;;;1.33;;
12059;SDS011;6091;51.432;6.880;2023-03-14T15:15:20;2.20;;;1.10;;
12059;SDS011;6091;51.432;6.880;2023-03-14T15:17:47;2.08;;;1.35;;
12059;SDS011;6091;51.432;6.880;2023-03-14T15:20:16;2.33;;;0.95;;
12059;SDS011;6091;51.432;6.880;2023-03-14T15:22:46;3.10;;;1.42;;
12059;SDS011;6091;51.432;6.880;2023-03-14T15:25:14;2.83;;;1.10;;
12059;SDS011;6091;51.432;6.880;2023-03-14T15:28:02;1.67;;;1.17;;
12059;SDS011;6091;51.432;6.880;2023-03-14T15:30:29;1.88;;;1.15;;
12059;SDS011;6091;51.432;6.880;2023-03-14T15:32:57;2.28;;;1.20;;
12059;SDS011;6091;51.432;6.880;2023-03-14T15:35:27;0.93;;;0.77;;
12059;SDS011;6091;51.432;6.880;2023-03-14T15:37:58;4.55;;;1.30;;
12059;SDS011;6091;51.432;6.880;2023-03-14T15:40:28;2.47;;;1.05;;
12059;SDS011;6091;51.432;6.880;2023-03-14T15:42:56;1.15;;;1.02;;
12059;SDS011;6091;51.432;6.880;2023-03-14T15:45:24;1.52;;;1.00;;
12059;SDS011;6091;51.432;6.880;2023-03-14T15:47:51;1.08;;;0.90;;
12059;SDS011;6091;51.432;6.880;2023-03-14T15:50:19;1.52;;;0.70;;
12059;SDS011;6091;51.432;6.880;2023-03-14T15:52:46;1.25;;;0.80;;
12059;SDS011;6091;51.432;6.880;2023-03-14T15:55:14;1.10;;;0.60;;
12059;SDS011;6091;51.432;6.880;2023-03-14T15:57:45;1.08;;;0.93;;
12059;SDS011;6091;51.432;6.880;2023-03-14T16:00:13;1.27;;;1.00;;
12059;SDS011;6091;51.432;6.880;2023-03-14T16:02:48;1.42;;;0.90;;
12059;SDS011;6091;51.432;6.880;2023-03-14T16:05:15;1.05;;;0.80;;
12059;SDS011;6091;51.432;6.880;2023-03-14T16:07:44;1.00;;;0.65;;
12059;SDS011;6091;51.432;6.880;2023-03-14T16:10:11;1.90;;;0.90;;
12059;SDS011;6091;51.432;6.880;2023-03-14T16:12:41;1.10;;;0.82;;
12059;SDS011;6091;51.432;6.880;2023-03-14T16:15:09;0.70;;;0.70;;
12059;SDS011;6091;51.432;6.880;2023-03-14T16:17:36;1.80;;;0.85;;
12059;SDS011;6091;51.432;6.880;2023-03-14T16:20:12;1.27;;;0.80;;
12059;SDS011;6091;51.432;6.880;2023-03-14T16:22:42;0.77;;;0.70;;
12059;SDS011;6091;51.432;6.880;2023-03-14T16:25:10;1.75;;;0.70;;
12059;SDS011;6091;51.432;6.880;2023-03-14T16:27:38;1.05;;;0.73;;
12059;SDS011;6091;51.432;6.880;2023-03-14T16:30:05;0.88;;;0.70;;
12059;SDS011;6091;51.432;6.880;2023-03-14T16:32:34;0.88;;;0.70;;
12059;SDS011;6091;51.432;6.880;2023-03-14T16:35:02;1.60;;;0.90;;
12059;SDS011;6091;51.432;6.880;2023-03-14T16:37:33;1.13;;;0.60;;
12059;SDS011;6091;51.432;6.880;2023-03-14T16:40:00;0.80;;;0.60;;
12059;SDS011;6091;51.432;6.880;2023-03-14T16:42:42;0.60;;;0.60;;
12059;SDS011;6091;51.432;6.880;2023-03-14T16:45:32;0.70;;;0.60;;